createdAt,value
2022-12-09T00:00:32.027Z,-0.50
2022-12-09T00:02:59.667Z,-0.50
2022-12-09T00:05:27.015Z,-0.50
2022-12-09T00:07:54.515Z,-0.50
2022-12-09T00:10:21.686Z,-0.60
2022-12-09T00:12:48.847Z,-0.60
2022-12-09T00:15:15.997Z,-0.50
2022-12-09T00:17:43.327Z,-0.50
2022-12-09T00:20:11.841Z,-0.50
2022-12-09T00:22:39.344Z,-0.40
2022-12-09T00:25:07.252Z,-0.40
2022-12-09T00:27:34.542Z,-0.40
2022-12-09T00:30:01.821Z,-0.40
2022-12-09T00:32:29.063Z,-0.40
2022-12-09T00:34:56.841Z,-0.40
2022-12-09T00:37:24.010Z,-0.40
2022-12-09T00:39:51.440Z,-0.50
2022-12-09T00:42:18.755Z,-0.50
2022-12-09T00:44:45.970Z,-0.60
2022-12-09T00:47:13.447Z,-0.70
2022-12-09T00:49:40.683Z,-0.60
2022-12-09T00:52:07.858Z,-0.70
2022-12-09T00:54:35.612Z,-0.70
2022-12-09T00:57:03.695Z,-0.80
2022-12-09T00:59:31.327Z,-0.80
2022-12-09T01:01:58.570Z,-0.90
2022-12-09T01:04:26.147Z,-0.90
2022-12-09T01:06:53.356Z,-0.90
2022-12-09T01:09:20.618Z,-0.80
2022-12-09T01:11:47.974Z,-0.80
2022-12-09T01:14:15.403Z,-0.80
2022-12-09T01:16:42.840Z,-0.80
2022-12-09T01:19:13.304Z,-0.80
2022-12-09T01:21:40.857Z,-0.80
2022-12-09T01:24:10.412Z,-0.80
2022-12-09T01:26:38.033Z,-0.80
2022-12-09T01:29:05.285Z,-0.90
2022-12-09T01:31:32.615Z,-0.90
2022-12-09T01:34:00.268Z,-0.90
2022-12-09T01:36:31.176Z,-0.90
2022-12-09T01:39:01.799Z,-0.90
2022-12-09T01:41:29.535Z,-0.90
2022-12-09T01:44:14.259Z,-0.90
2022-12-09T01:46:42.260Z,-0.90
2022-12-09T01:49:17.105Z,-0.90
2022-12-09T01:51:48.273Z,-1.00
2022-12-09T01:54:16.265Z,-1.00
2022-12-09T01:56:45.184Z,-1.00
2022-12-09T01:59:14.584Z,-1.00
2022-12-09T02:01:44.375Z,-1.00
2022-12-09T02:04:11.841Z,-1.10
2022-12-09T02:06:39.345Z,-1.00
2022-12-09T02:09:10.306Z,-1.00
2022-12-09T02:11:53.640Z,-1.00
2022-12-09T02:14:39.538Z,-1.00
2022-12-09T02:17:28.023Z,-1.00
2022-12-09T02:20:22.770Z,-1.00
2022-12-09T02:23:38.866Z,-1.00
2022-12-09T02:26:15.553Z,-1.00
2022-12-09T02:29:09.317Z,-1.00
2022-12-09T02:32:00.330Z,-1.00
2022-12-09T02:34:32.991Z,-1.00
2022-12-09T02:37:19.589Z,-1.00
2022-12-09T02:40:24.195Z,-0.90
2022-12-09T02:42:52.050Z,-0.90
2022-12-09T02:45:21.466Z,-0.90
2022-12-09T02:47:54.645Z,-0.90
2022-12-09T02:50:26.755Z,-0.90
2022-12-09T02:52:56.303Z,-0.90
2022-12-09T02:55:23.715Z,-0.80
2022-12-09T02:57:55.019Z,-0.70
2022-12-09T03:00:23.026Z,-0.80
2022-12-09T03:02:55.121Z,-0.70
2022-12-09T03:05:48.493Z,-0.70
2022-12-09T03:08:32.633Z,-0.60
2022-12-09T03:11:21.996Z,-0.60
2022-12-09T03:14:06.419Z,-0.60
2022-12-09T03:16:37.689Z,-0.60
2022-12-09T03:19:23.049Z,-0.60
2022-12-09T03:21:53.522Z,-0.60
2022-12-09T03:25:06.397Z,-0.60
2022-12-09T03:28:03.397Z,-0.60
2022-12-09T03:30:37.400Z,-0.70
2022-12-09T03:33:05.241Z,-0.80
2022-12-09T03:35:42.586Z,-0.80
2022-12-09T03:38:14.669Z,-0.80
2022-12-09T03:40:43.189Z,-0.80
2022-12-09T03:43:21.037Z,-0.80
2022-12-09T03:45:48.953Z,-0.90
2022-12-09T03:48:16.565Z,-0.90
2022-12-09T03:50:54.174Z,-0.90
2022-12-09T03:53:27.636Z,-0.80
2022-12-09T03:56:06.738Z,-0.80
2022-12-09T03:58:36.559Z,-0.80
2022-12-09T04:01:04.117Z,-0.90
2022-12-09T04:03:33.010Z,-0.80
2022-12-09T04:06:00.418Z,-0.80
2022-12-09T04:08:27.857Z,-0.90
2022-12-09T04:10:55.169Z,-0.90
2022-12-09T04:13:22.502Z,-0.90
2022-12-09T04:15:49.809Z,-0.80
2022-12-09T04:18:17.037Z,-0.90
2022-12-09T04:20:44.591Z,-0.90
2022-12-09T04:23:11.859Z,-0.90
2022-12-09T04:25:39.244Z,-0.80
2022-12-09T04:28:06.697Z,-0.80
2022-12-09T04:30:34.095Z,-0.80
2022-12-09T04:33:01.522Z,-0.80
2022-12-09T04:35:28.744Z,-0.80
2022-12-09T04:37:55.968Z,-0.80
2022-12-09T04:40:24.613Z,-0.80
2022-12-09T04:42:52.154Z,-0.80
2022-12-09T04:45:19.336Z,-0.80
2022-12-09T04:47:46.629Z,-0.80
2022-12-09T04:50:14.411Z,-0.80
2022-12-09T04:52:42.442Z,-0.80
2022-12-09T04:55:10.202Z,-0.80
2022-12-09T04:57:37.626Z,-0.80
2022-12-09T05:00:07.596Z,-0.80
2022-12-09T05:02:35.157Z,-0.80
2022-12-09T05:05:03.272Z,-0.90
2022-12-09T05:07:31.214Z,-0.80
2022-12-09T05:09:59.005Z,-0.80
2022-12-09T05:12:26.985Z,-0.80
2022-12-09T05:14:54.201Z,-0.80
2022-12-09T05:17:21.805Z,-0.80
2022-12-09T05:19:49.175Z,-0.80
2022-12-09T05:22:17.814Z,-0.70
2022-12-09T05:24:46.901Z,-0.70
2022-12-09T05:27:15.599Z,-0.70
2022-12-09T05:29:43.145Z,-0.70
2022-12-09T05:32:10.609Z,-0.70
2022-12-09T05:34:39.583Z,-0.70
2022-12-09T05:37:07.132Z,-0.70
2022-12-09T05:39:34.419Z,-0.70
2022-12-09T05:42:01.825Z,-0.70
2022-12-09T05:44:30.149Z,-0.70
2022-12-09T05:46:57.592Z,-0.70
2022-12-09T05:49:25.465Z,-0.70
2022-12-09T05:51:54.283Z,-0.60
2022-12-09T05:54:21.606Z,-0.60
2022-12-09T05:56:49.081Z,-0.60
2022-12-09T05:59:16.933Z,-0.60
2022-12-09T06:01:44.172Z,-0.60
2022-12-09T06:04:12.006Z,-0.60
2022-12-09T06:06:39.732Z,-0.60
2022-12-09T06:09:11.602Z,-0.60
2022-12-09T06:11:40.462Z,-0.60
2022-12-09T06:14:08.962Z,-0.60
2022-12-09T06:16:36.573Z,-0.60
2022-12-09T06:19:05.107Z,-0.60
2022-12-09T06:21:32.373Z,-0.60
2022-12-09T06:23:59.971Z,-0.50
2022-12-09T06:26:29.920Z,-0.50
2022-12-09T06:28:57.636Z,-0.50
2022-12-09T06:31:26.606Z,-0.50
2022-12-09T06:33:56.493Z,-0.40
2022-12-09T06:36:27.211Z,-0.40
2022-12-09T06:38:55.426Z,-0.40
2022-12-09T06:41:23.153Z,-0.40
2022-12-09T06:43:50.799Z,-0.40
2022-12-09T06:46:20.553Z,-0.40
2022-12-09T06:48:48.155Z,-0.30
2022-12-09T06:51:17.754Z,-0.30
2022-12-09T06:53:46.181Z,-0.30
2022-12-09T06:56:15.003Z,-0.30
2022-12-09T06:58:43.871Z,-0.20
2022-12-09T07:01:14.709Z,-0.20
2022-12-09T07:03:47.975Z,-0.20
2022-12-09T07:06:30.821Z,-0.20
2022-12-09T07:09:04.734Z,-0.20
2022-12-09T07:11:32.671Z,-0.20
2022-12-09T07:14:00.571Z,-0.10
2022-12-09T07:16:28.817Z,-0.10
2022-12-09T07:18:56.771Z,-0.10
2022-12-09T07:21:25.100Z,0.00
2022-12-09T07:23:53.273Z,-0.10
2022-12-09T07:26:21.459Z,0.00
2022-12-09T07:28:50.299Z,0.00
2022-12-09T07:31:28.941Z,0.10
2022-12-09T07:33:58.952Z,0.10
2022-12-09T07:36:29.491Z,0.10
2022-12-09T07:39:07.715Z,0.10
2022-12-09T07:41:35.309Z,0.10
2022-12-09T07:44:02.708Z,0.10
2022-12-09T07:46:30.291Z,0.10
2022-12-09T07:48:58.815Z,0.10
2022-12-09T07:51:26.816Z,0.10
2022-12-09T07:53:54.778Z,0.20
2022-12-09T07:56:23.257Z,0.10
2022-12-09T07:58:53.394Z,0.20
2022-12-09T08:01:24.529Z,0.20
2022-12-09T08:03:53.389Z,0.20
2022-12-09T08:06:23.670Z,0.20
2022-12-09T08:08:51.803Z,0.20
2022-12-09T08:11:26.480Z,0.20
2022-12-09T08:13:56.474Z,0.30
2022-12-09T08:16:24.253Z,0.30
2022-12-09T08:18:53.665Z,0.30
2022-12-09T08:21:24.286Z,0.30
2022-12-09T08:23:52.868Z,0.30
2022-12-09T08:26:22.369Z,0.40
2022-12-09T08:28:50.428Z,0.40
2022-12-09T08:31:21.157Z,0.40
2022-12-09T08:33:49.245Z,0.50
2022-12-09T08:36:19.806Z,0.50
2022-12-09T08:38:48.105Z,0.60
2022-12-09T08:41:20.803Z,0.60
2022-12-09T08:43:48.581Z,0.60
2022-12-09T08:46:16.312Z,0.60
2022-12-09T08:48:43.869Z,0.60
2022-12-09T08:51:12.339Z,0.70
2022-12-09T08:53:39.915Z,0.70
2022-12-09T08:56:09.511Z,0.80
2022-12-09T08:58:36.805Z,0.80
2022-12-09T09:01:04.998Z,0.90
2022-12-09T09:03:37.460Z,0.90
2022-12-09T09:06:10.318Z,0.90
2022-12-09T09:08:39.186Z,0.90
2022-12-09T09:11:16.049Z,0.90
2022-12-09T09:13:45.115Z,0.90
2022-12-09T09:16:16.841Z,0.90
2022-12-09T09:18:44.755Z,0.90
2022-12-09T09:21:14.812Z,0.90
2022-12-09T09:23:42.981Z,1.00
2022-12-09T09:26:19.251Z,1.00
2022-12-09T09:28:48.068Z,0.90
2022-12-09T09:31:19.458Z,1.00
2022-12-09T09:33:47.981Z,1.00
2022-12-09T09:36:21.846Z,1.10
2022-12-09T09:38:50.829Z,1.10
2022-12-09T09:41:21.694Z,1.10
2022-12-09T09:43:49.297Z,1.10
2022-12-09T09:46:24.436Z,1.10
2022-12-09T09:48:53.295Z,1.10
2022-12-09T09:51:21.889Z,1.10
2022-12-09T09:53:51.448Z,1.10
2022-12-09T09:56:31.366Z,1.10
2022-12-09T09:59:37.489Z,1.10
2022-12-09T10:02:34.367Z,1.10
2022-12-09T10:05:16.691Z,1.20
2022-12-09T10:07:51.565Z,1.20
2022-12-09T10:10:47.423Z,1.20
2022-12-09T10:13:42.146Z,1.20
2022-12-09T10:16:17.955Z,1.20
2022-12-09T10:19:07.739Z,1.20
2022-12-09T10:21:41.069Z,1.20
2022-12-09T10:24:20.027Z,1.30
2022-12-09T10:27:12.006Z,1.20
2022-12-09T10:29:55.906Z,1.20
2022-12-09T10:32:27.882Z,1.30
2022-12-09T10:34:55.332Z,1.30
2022-12-09T10:37:33.168Z,1.30
2022-12-09T10:40:13.152Z,1.30
2022-12-09T10:43:17.030Z,1.30
2022-12-09T10:46:15.526Z,1.30
2022-12-09T10:48:41.476Z,1.30
2022-12-09T10:51:31.182Z,1.40
2022-12-09T10:54:04.293Z,1.40
2022-12-09T10:56:35.033Z,1.40
2022-12-09T10:59:18.023Z,1.40
2022-12-09T11:02:02.694Z,1.40
2022-12-09T11:04:33.906Z,1.40
2022-12-09T11:07:11.907Z,1.40
2022-12-09T11:09:43.771Z,1.50
2022-12-09T11:12:41.450Z,1.50
2022-12-09T11:15:12.697Z,1.50
2022-12-09T11:17:56.094Z,1.60
2022-12-09T11:20:29.889Z,1.60
2022-12-09T11:23:12.746Z,1.60
2022-12-09T11:26:02.616Z,1.70
2022-12-09T11:28:40.543Z,1.70
2022-12-09T11:31:35.807Z,1.80
2022-12-09T11:34:14.606Z,1.80
2022-12-09T11:36:48.106Z,1.80
2022-12-09T11:39:34.294Z,1.80
2022-12-09T11:42:17.905Z,1.80
2022-12-09T11:44:59.389Z,1.80
2022-12-09T11:48:21.578Z,1.80
2022-12-09T11:50:32.913Z,1.80
2022-12-09T11:53:12.594Z,1.80
2022-12-09T11:55:49.315Z,1.90
2022-12-09T11:58:23.430Z,1.90
2022-12-09T12:01:05.133Z,1.90
2022-12-09T12:03:42.231Z,1.90
2022-12-09T12:06:38.325Z,1.90
2022-12-09T12:09:19.056Z,1.90
2022-12-09T12:12:05.187Z,2.00
2022-12-09T12:14:35.135Z,1.90
2022-12-09T12:17:22.187Z,1.90
2022-12-09T12:19:51.515Z,1.90
2022-12-09T12:22:43.503Z,1.90
2022-12-09T12:25:48.402Z,1.90
2022-12-09T12:28:35.186Z,1.90
2022-12-09T12:31:26.039Z,1.90
2022-12-09T12:34:34.301Z,2.00
2022-12-09T12:37:47.171Z,1.90
2022-12-09T12:40:36.952Z,1.90
2022-12-09T12:43:48.707Z,1.80
2022-12-09T12:46:49.603Z,1.80
2022-12-09T12:49:16.698Z,1.90
2022-12-09T12:52:21.018Z,1.90
2022-12-09T12:54:55.576Z,2.00
2022-12-09T12:57:46.838Z,2.00
2022-12-09T13:00:24.039Z,2.00
2022-12-09T13:03:09.436Z,2.00
2022-12-09T13:05:41.145Z,2.00
2022-12-09T13:08:21.729Z,1.90
2022-12-09T13:10:55.711Z,1.90
2022-12-09T13:13:38.533Z,1.80
2022-12-09T13:16:24.613Z,1.80
2022-12-09T13:18:52.364Z,1.80
2022-12-09T13:21:21.959Z,1.80
2022-12-09T13:24:00.370Z,1.80
2022-12-09T13:26:44.308Z,1.80
2022-12-09T13:29:14.499Z,1.70
2022-12-09T13:32:10.601Z,1.70
2022-12-09T13:34:41.711Z,1.70
2022-12-09T13:37:32.032Z,1.70
2022-12-09T13:39:59.427Z,1.70
2022-12-09T13:42:47.249Z,1.70
2022-12-09T13:45:23.669Z,1.70
2022-12-09T13:47:53.294Z,1.70
2022-12-09T13:50:39.330Z,1.70
2022-12-09T13:53:20.343Z,1.70
2022-12-09T13:55:53.084Z,1.80
2022-12-09T13:58:36.756Z,1.70
2022-12-09T14:01:13.141Z,1.70
2022-12-09T14:04:35.101Z,1.70
2022-12-09T14:07:36.044Z,1.70
2022-12-09T14:10:04.330Z,1.70
2022-12-09T14:12:32.542Z,1.70
2022-12-09T14:15:19.490Z,1.70
2022-12-09T14:17:46.581Z,1.70
2022-12-09T14:20:21.161Z,1.70
2022-12-09T14:23:06.741Z,1.70
2022-12-09T14:25:33.873Z,1.70
2022-12-09T14:28:32.973Z,1.70
2022-12-09T14:31:06.600Z,1.70
2022-12-09T14:33:45.599Z,1.80
2022-12-09T14:36:15.774Z,1.80
2022-12-09T14:41:58.670Z,1.70
2022-12-09T14:45:03.080Z,1.80
2022-12-09T14:47:39.232Z,1.70
2022-12-09T14:50:14.059Z,1.70
2022-12-09T14:52:52.177Z,1.60
2022-12-09T14:55:22.992Z,1.60
2022-12-09T14:57:52.109Z,1.60
2022-12-09T15:00:36.395Z,1.60
2022-12-09T15:03:36.747Z,1.60
2022-12-09T15:06:10.938Z,1.70
2022-12-09T15:08:40.460Z,1.70
2022-12-09T15:11:25.798Z,1.70
2022-12-09T15:13:55.722Z,1.70
2022-12-09T15:16:26.020Z,1.70
2022-12-09T15:18:54.683Z,1.70
2022-12-09T15:21:31.560Z,1.60
2022-12-09T15:24:00.475Z,1.70
2022-12-09T15:26:30.582Z,1.70
2022-12-09T15:29:04.973Z,1.70
2022-12-09T15:31:34.069Z,1.70
2022-12-09T15:34:15.504Z,1.70
2022-12-09T15:36:49.771Z,1.70
2022-12-09T15:39:23.415Z,1.70
2022-12-09T15:42:07.566Z,1.70
2022-12-09T15:44:53.310Z,1.70
2022-12-09T15:47:41.550Z,1.80
2022-12-09T15:50:26.611Z,1.70
2022-12-09T15:52:56.030Z,1.70
2022-12-09T15:55:50.362Z,1.80
2022-12-09T15:58:23.995Z,1.70
2022-12-09T16:00:51.987Z,1.70
2022-12-09T16:03:28.581Z,1.70
2022-12-09T16:06:01.027Z,1.70
2022-12-09T16:08:43.180Z,1.70
2022-12-09T16:11:11.304Z,1.70
2022-12-09T16:14:04.843Z,1.70
2022-12-09T16:16:56.846Z,1.70
2022-12-09T16:19:23.966Z,1.80
2022-12-09T16:21:56.887Z,1.80
2022-12-09T16:24:25.077Z,1.70
2022-12-09T16:26:54.534Z,1.70
2022-12-09T16:29:30.625Z,1.70
2022-12-09T16:32:30.293Z,1.70
2022-12-09T16:35:11.569Z,1.70
2022-12-09T16:37:41.800Z,1.70
2022-12-09T16:40:20.978Z,1.80
2022-12-09T16:42:53.619Z,1.70
2022-12-09T16:45:36.925Z,1.70
2022-12-09T16:48:04.928Z,1.70
2022-12-09T16:50:35.788Z,1.70
2022-12-09T16:53:07.132Z,1.60
2022-12-09T16:55:34.333Z,1.60
2022-12-09T16:58:01.509Z,1.70
2022-12-09T17:00:28.829Z,1.70
2022-12-09T17:03:06.033Z,1.60
2022-12-09T17:05:33.307Z,1.60
2022-12-09T17:08:00.566Z,1.60
2022-12-09T17:10:27.922Z,1.60
2022-12-09T17:12:55.179Z,1.70
2022-12-09T17:15:22.545Z,1.70
2022-12-09T17:17:50.812Z,1.70
2022-12-09T17:20:18.098Z,1.70
2022-12-09T17:22:45.323Z,1.70
2022-12-09T17:25:12.568Z,1.70
2022-12-09T17:27:39.702Z,1.80
2022-12-09T17:30:07.507Z,1.80
2022-12-09T17:32:34.694Z,1.70
2022-12-09T17:35:01.822Z,1.80
2022-12-09T17:37:28.979Z,1.80
2022-12-09T17:40:03.186Z,1.80
2022-12-09T17:42:30.978Z,1.80
2022-12-09T17:44:58.253Z,1.80
2022-12-09T17:47:25.402Z,1.80
2022-12-09T17:49:52.887Z,1.80
2022-12-09T17:52:20.079Z,1.80
2022-12-09T17:54:47.767Z,1.90
2022-12-09T17:57:14.978Z,1.90
2022-12-09T17:59:42.109Z,1.90
2022-12-09T18:02:10.740Z,1.90
2022-12-09T18:04:37.898Z,1.90
2022-12-09T18:07:05.029Z,1.80
2022-12-09T18:09:32.395Z,1.80
2022-12-09T18:11:59.858Z,1.90
2022-12-09T18:14:27.145Z,1.90
2022-12-09T18:16:54.383Z,1.90
2022-12-09T18:19:23.328Z,1.90
2022-12-09T18:21:51.623Z,1.90
2022-12-09T18:24:18.774Z,1.90
2022-12-09T18:26:45.954Z,1.90
2022-12-09T18:29:13.847Z,1.90
2022-12-09T18:31:42.063Z,1.90
2022-12-09T18:34:09.302Z,2.00
2022-12-09T18:36:37.144Z,2.00
2022-12-09T18:39:04.781Z,2.00
2022-12-09T18:41:32.824Z,2.00
2022-12-09T18:44:03.647Z,1.90
2022-12-09T18:46:36.612Z,1.90
2022-12-09T18:49:12.676Z,2.00
2022-12-09T18:51:41.389Z,2.00
2022-12-09T18:54:08.930Z,2.00
2022-12-09T18:56:37.107Z,2.00
2022-12-09T18:59:07.442Z,1.90
2022-12-09T19:01:41.227Z,1.90
2022-12-09T19:04:16.377Z,2.00
2022-12-09T19:06:46.531Z,2.00
2022-12-09T19:09:18.257Z,2.00
2022-12-09T19:11:47.333Z,1.90
2022-12-09T19:14:16.646Z,2.00
2022-12-09T19:16:44.677Z,2.00
2022-12-09T19:19:18.410Z,2.00
2022-12-09T19:21:46.049Z,2.00
2022-12-09T19:24:18.891Z,2.00
2022-12-09T19:26:46.497Z,2.00
2022-12-09T19:29:14.864Z,2.00
2022-12-09T19:31:45.250Z,2.00
2022-12-09T19:34:21.538Z,2.00
2022-12-09T19:36:50.550Z,2.00
2022-12-09T19:39:20.506Z,2.00
2022-12-09T19:41:48.246Z,2.00
2022-12-09T19:44:30.918Z,2.00
2022-12-09T19:47:05.144Z,2.00
2022-12-09T19:49:32.372Z,2.00
2022-12-09T19:51:59.904Z,2.00
2022-12-09T19:54:29.499Z,2.00
2022-12-09T19:56:56.956Z,1.90
2022-12-09T19:59:24.186Z,1.90
2022-12-09T20:01:51.770Z,1.90
2022-12-09T20:07:08.812Z,1.90
2022-12-09T20:09:37.356Z,2.00
2022-12-09T20:12:04.905Z,2.10
2022-12-09T20:14:32.124Z,2.00
2022-12-09T20:16:59.255Z,2.00
2022-12-09T20:19:26.584Z,2.00
2022-12-09T20:21:53.828Z,2.00
2022-12-09T20:24:21.070Z,2.00
2022-12-09T20:26:48.416Z,2.00
2022-12-09T20:29:15.649Z,2.10
2022-12-09T20:31:43.071Z,2.10
2022-12-09T20:34:16.032Z,2.10
2022-12-09T20:36:44.804Z,2.10
2022-12-09T20:39:17.918Z,2.00
2022-12-09T20:41:46.236Z,2.00
2022-12-09T20:44:14.379Z,1.90
2022-12-09T20:46:45.638Z,1.90
2022-12-09T20:49:12.782Z,1.90
2022-12-09T20:51:41.272Z,1.90
2022-12-09T20:54:10.563Z,2.00
2022-12-09T20:56:38.044Z,2.00
2022-12-09T20:59:06.583Z,2.00
2022-12-09T21:01:35.487Z,2.00
2022-12-09T21:04:05.222Z,2.00
2022-12-09T21:06:35.072Z,2.00
2022-12-09T21:09:05.705Z,2.00
2022-12-09T21:11:33.336Z,1.90
2022-12-09T21:14:03.490Z,2.00
2022-12-09T21:16:37.761Z,2.00
2022-12-09T21:19:07.146Z,2.10
2022-12-09T21:21:35.786Z,2.10
2022-12-09T21:24:03.874Z,2.10
2022-12-09T21:26:31.325Z,2.00
2022-12-09T21:29:00.715Z,2.00
2022-12-09T21:31:30.960Z,2.00
2022-12-09T21:34:03.752Z,1.90
2022-12-09T21:36:36.497Z,1.90
2022-12-09T21:39:05.082Z,1.90
2022-12-09T21:41:34.898Z,1.90
2022-12-09T21:44:02.828Z,1.90
2022-12-09T21:46:32.374Z,1.90
2022-12-09T21:49:03.895Z,1.90
2022-12-09T21:51:32.858Z,1.90
2022-12-09T21:54:00.136Z,2.00
2022-12-09T21:56:30.360Z,2.00
2022-12-09T21:58:58.908Z,2.00
2022-12-09T22:01:29.270Z,2.00
2022-12-09T22:03:57.839Z,2.00
2022-12-09T22:06:25.669Z,2.10
2022-12-09T22:08:53.110Z,2.00
2022-12-09T22:11:23.658Z,2.00
2022-12-09T22:13:51.504Z,2.00
2022-12-09T22:16:24.305Z,2.00
2022-12-09T22:18:54.123Z,2.00
2022-12-09T22:21:25.285Z,2.00
2022-12-09T22:23:58.698Z,2.10
2022-12-09T22:26:26.843Z,2.10
2022-12-09T22:28:54.894Z,2.20
2022-12-09T22:31:25.719Z,2.20
2022-12-09T22:33:58.159Z,2.20
2022-12-09T22:36:25.535Z,2.20
2022-12-09T22:38:53.608Z,2.20
2022-12-09T22:41:25.501Z,2.20
2022-12-09T22:43:54.509Z,2.20
2022-12-09T22:46:27.779Z,2.10
2022-12-09T22:48:57.498Z,2.10
2022-12-09T22:51:27.551Z,2.10
2022-12-09T22:53:57.137Z,2.10
2022-12-09T22:56:25.370Z,2.10
2022-12-09T22:58:53.205Z,2.20
2022-12-09T23:01:32.783Z,2.20
2022-12-09T23:04:00.474Z,2.20
2022-12-09T23:06:29.190Z,2.20
2022-12-09T23:08:57.123Z,2.20
2022-12-09T23:11:26.506Z,2.20
2022-12-09T23:13:54.453Z,2.20
2022-12-09T23:16:23.713Z,2.20
2022-12-09T23:18:51.356Z,2.20
2022-12-09T23:21:24.937Z,2.20
2022-12-09T23:23:57.216Z,2.30
2022-12-09T23:26:26.855Z,2.20
2022-12-09T23:28:56.803Z,2.20
2022-12-09T23:31:27.493Z,2.20
2022-12-09T23:33:55.687Z,2.20
2022-12-09T23:36:31.602Z,2.20
2022-12-09T23:39:00.081Z,2.20
2022-12-09T23:41:28.154Z,2.10
2022-12-09T23:43:55.706Z,2.10
2022-12-09T23:46:26.406Z,2.10
2022-12-09T23:48:54.692Z,2.10
2022-12-09T23:51:31.647Z,2.20
2022-12-09T23:54:01.221Z,2.20
2022-12-09T23:56:30.555Z,2.20
2022-12-09T23:59:04.719Z,2.10
